sensor_id;sensor_type;location;lat;lon;timestamp;temperature;humidity
44863;DHT22;30597;49.628;10.850;2023-09-19T00:01:07;23.40;66.40
44863;DHT22;30597;49.628;10.850;2023-09-19T00:03:34;23.40;66.50
44863;DHT22;30597;49.628;10.850;2023-09-19T00:06:01;23.30;66.50
44863;DHT22;30597;49.628;10.850;2023-09-19T00:08:26;23.30;66.50
44863;DHT22;30597;49.628;10.850;2023-09-19T00:10:54;23.30;66.60
44863;DHT22;30597;49.628;10.850;2023-09-19T00:13:20;23.40;66.70
44863;DHT22;30597;49.628;10.850;2023-09-19T00:15:46;23.30;66.50
44863;DHT22;30597;49.628;10.850;2023-09-19T00:18:14;23.30;66.70
44863;DHT22;30597;49.628;10.850;2023-09-19T00:20:41;23.40;66.60
44863;DHT22;30597;49.628;10.850;2023-09-19T00:23:07;23.30;66.60
44863;DHT22;30597;49.628;10.850;2023-09-19T00:25:36;23.40;66.70
44863;DHT22;30597;49.628;10.850;2023-09-19T00:28:03;23.30;66.70
44863;DHT22;30597;49.628;10.850;2023-09-19T00:30:29;23.30;66.70
44863;DHT22;30597;49.628;10.850;2023-09-19T00:32:54;23.30;66.50
44863;DHT22;30597;49.628;10.850;2023-09-19T00:35:21;23.30;66.60
44863;DHT22;30597;49.628;10.850;2023-09-19T00:37:50;23.30;66.70
44863;DHT22;30597;49.628;10.850;2023-09-19T00:40:16;23.30;66.70
44863;DHT22;30597;49.628;10.850;2023-09-19T00:42:45;23.30;66.60
44863;DHT22;30597;49.628;10.850;2023-09-19T00:45:12;23.30;66.70
44863;DHT22;30597;49.628;10.850;2023-09-19T00:47:47;23.30;66.80
44863;DHT22;30597;49.628;10.850;2023-09-19T00:50:21;23.20;66.70
44863;DHT22;30597;49.628;10.850;2023-09-19T00:52:48;23.20;66.70
44863;DHT22;30597;49.628;10.850;2023-09-19T00:55:16;23.30;66.80
44863;DHT22;30597;49.628;10.850;2023-09-19T00:57:42;23.20;66.70
44863;DHT22;30597;49.628;10.850;2023-09-19T01:00:09;23.20;66.70
44863;DHT22;30597;49.628;10.850;2023-09-19T01:02:41;23.20;66.70
44863;DHT22;30597;49.628;10.850;2023-09-19T01:05:08;23.20;66.70
44863;DHT22;30597;49.628;10.850;2023-09-19T01:07:35;23.20;66.80
44863;DHT22;30597;49.628;10.850;2023-09-19T01:10:06;23.20;66.80
44863;DHT22;30597;49.628;10.850;2023-09-19T01:12:47;23.20;66.90
44863;DHT22;30597;49.628;10.850;2023-09-19T01:21:15;23.10;66.80
44863;DHT22;30597;49.628;10.850;2023-09-19T01:24:19;23.20;67.00
44863;DHT22;30597;49.628;10.850;2023-09-19T01:29:42;23.10;67.00
44863;DHT22;30597;49.628;10.850;2023-09-19T01:32:11;23.10;67.00
44863;DHT22;30597;49.628;10.850;2023-09-19T01:34:50;23.10;67.00
44863;DHT22;30597;49.628;10.850;2023-09-19T01:37:16;23.20;67.00
44863;DHT22;30597;49.628;10.850;2023-09-19T01:39:51;23.10;67.00
44863;DHT22;30597;49.628;10.850;2023-09-19T01:42:42;23.10;66.90
44863;DHT22;30597;49.628;10.850;2023-09-19T01:47:52;23.10;67.00
44863;DHT22;30597;49.628;10.850;2023-09-19T01:50:40;23.20;67.10
44863;DHT22;30597;49.628;10.850;2023-09-19T01:53:13;23.10;66.90
44863;DHT22;30597;49.628;10.850;2023-09-19T01:55:47;23.10;66.90
44863;DHT22;30597;49.628;10.850;2023-09-19T01:58:21;23.10;66.90
44863;DHT22;30597;49.628;10.850;2023-09-19T02:00:52;23.10;66.90
44863;DHT22;30597;49.628;10.850;2023-09-19T02:03:20;23.10;66.90
44863;DHT22;30597;49.628;10.850;2023-09-19T02:05:51;23.10;66.80
44863;DHT22;30597;49.628;10.850;2023-09-19T02:08:20;23.10;66.70
44863;DHT22;30597;49.628;10.850;2023-09-19T02:10:46;23.10;66.70
44863;DHT22;30597;49.628;10.850;2023-09-19T02:13:19;23.10;66.60
44863;DHT22;30597;49.628;10.850;2023-09-19T02:15:45;23.10;66.70
44863;DHT22;30597;49.628;10.850;2023-09-19T02:18:11;23.10;66.60
44863;DHT22;30597;49.628;10.850;2023-09-19T02:20:40;23.10;66.60
44863;DHT22;30597;49.628;10.850;2023-09-19T02:23:06;23.10;66.30
44863;DHT22;30597;49.628;10.850;2023-09-19T02:25:31;23.10;66.70
44863;DHT22;30597;49.628;10.850;2023-09-19T02:27:57;23.10;66.50
44863;DHT22;30597;49.628;10.850;2023-09-19T02:30:24;23.10;66.60
44863;DHT22;30597;49.628;10.850;2023-09-19T02:32:53;23.10;66.60
44863;DHT22;30597;49.628;10.850;2023-09-19T02:35:18;23.10;66.60
44863;DHT22;30597;49.628;10.850;2023-09-19T02:37:48;23.10;66.60
44863;DHT22;30597;49.628;10.850;2023-09-19T02:40:14;23.10;66.60
44863;DHT22;30597;49.628;10.850;2023-09-19T02:42:53;23.10;66.60
44863;DHT22;30597;49.628;10.850;2023-09-19T02:45:19;23.10;66.60
44863;DHT22;30597;49.628;10.850;2023-09-19T02:47:46;23.10;66.40
44863;DHT22;30597;49.628;10.850;2023-09-19T02:50:12;23.10;66.60
44863;DHT22;30597;49.628;10.850;2023-09-19T02:52:41;23.10;66.50
44863;DHT22;30597;49.628;10.850;2023-09-19T02:55:09;23.10;66.60
44863;DHT22;30597;49.628;10.850;2023-09-19T02:57:35;23.10;66.60
44863;DHT22;30597;49.628;10.850;2023-09-19T03:00:02;23.00;66.50
44863;DHT22;30597;49.628;10.850;2023-09-19T03:02:28;23.10;66.70
44863;DHT22;30597;49.628;10.850;2023-09-19T03:04:54;23.10;66.50
44863;DHT22;30597;49.628;10.850;2023-09-19T03:07:21;23.10;66.60
44863;DHT22;30597;49.628;10.850;2023-09-19T03:09:47;23.10;66.40
44863;DHT22;30597;49.628;10.850;2023-09-19T03:12:13;23.00;66.40
44863;DHT22;30597;49.628;10.850;2023-09-19T03:14:41;23.00;66.30
44863;DHT22;30597;49.628;10.850;2023-09-19T03:17:06;23.00;66.40
44863;DHT22;30597;49.628;10.850;2023-09-19T03:19:33;23.00;66.50
44863;DHT22;30597;49.628;10.850;2023-09-19T03:21:59;23.00;66.40
44863;DHT22;30597;49.628;10.850;2023-09-19T03:24:25;23.00;66.50
44863;DHT22;30597;49.628;10.850;2023-09-19T03:26:51;23.00;66.50
44863;DHT22;30597;49.628;10.850;2023-09-19T03:29:16;23.00;66.60
44863;DHT22;30597;49.628;10.850;2023-09-19T03:31:42;23.00;66.70
44863;DHT22;30597;49.628;10.850;2023-09-19T03:34:08;23.00;66.60
44863;DHT22;30597;49.628;10.850;2023-09-19T03:36:34;23.00;66.70
44863;DHT22;30597;49.628;10.850;2023-09-19T03:39:00;22.90;66.70
44863;DHT22;30597;49.628;10.850;2023-09-19T03:41:25;23.00;66.70
44863;DHT22;30597;49.628;10.850;2023-09-19T03:43:51;23.00;66.70
44863;DHT22;30597;49.628;10.850;2023-09-19T03:46:17;23.00;66.80
44863;DHT22;30597;49.628;10.850;2023-09-19T03:48:42;23.00;66.80
44863;DHT22;30597;49.628;10.850;2023-09-19T03:51:08;22.90;66.70
44863;DHT22;30597;49.628;10.850;2023-09-19T03:53:34;23.00;66.80
44863;DHT22;30597;49.628;10.850;2023-09-19T03:55:59;22.90;66.60
44863;DHT22;30597;49.628;10.850;2023-09-19T03:58:25;23.00;66.60
44863;DHT22;30597;49.628;10.850;2023-09-19T04:00:55;22.90;66.70
44863;DHT22;30597;49.628;10.850;2023-09-19T04:03:20;22.90;66.80
44863;DHT22;30597;49.628;10.850;2023-09-19T04:05:47;22.90;66.60
44863;DHT22;30597;49.628;10.850;2023-09-19T04:08:15;23.00;66.80
44863;DHT22;30597;49.628;10.850;2023-09-19T04:10:44;22.90;66.70
44863;DHT22;30597;49.628;10.850;2023-09-19T04:13:11;22.90;66.70
44863;DHT22;30597;49.628;10.850;2023-09-19T04:15:36;23.00;66.70
44863;DHT22;30597;49.628;10.850;2023-09-19T04:18:03;22.90;66.70
44863;DHT22;30597;49.628;10.850;2023-09-19T04:20:29;22.90;66.70
44863;DHT22;30597;49.628;10.850;2023-09-19T04:22:54;22.90;66.50
44863;DHT22;30597;49.628;10.850;2023-09-19T04:25:20;22.90;66.70
44863;DHT22;30597;49.628;10.850;2023-09-19T04:27:46;22.90;66.70
44863;DHT22;30597;49.628;10.850;2023-09-19T04:30:12;22.90;66.50
44863;DHT22;30597;49.628;10.850;2023-09-19T04:32:41;22.90;66.70
44863;DHT22;30597;49.628;10.850;2023-09-19T04:35:08;22.90;66.70
44863;DHT22;30597;49.628;10.850;2023-09-19T04:37:36;22.90;66.70
44863;DHT22;30597;49.628;10.850;2023-09-19T04:40:02;23.00;67.00
44863;DHT22;30597;49.628;10.850;2023-09-19T04:42:31;22.90;66.70
44863;DHT22;30597;49.628;10.850;2023-09-19T04:44:56;22.90;66.50
44863;DHT22;30597;49.628;10.850;2023-09-19T04:47:22;22.90;66.60
44863;DHT22;30597;49.628;10.850;2023-09-19T04:49:47;22.80;66.30
44863;DHT22;30597;49.628;10.850;2023-09-19T04:52:13;22.80;66.60
44863;DHT22;30597;49.628;10.850;2023-09-19T04:54:40;22.80;66.60
44863;DHT22;30597;49.628;10.850;2023-09-19T04:57:06;22.90;66.70
44863;DHT22;30597;49.628;10.850;2023-09-19T04:59:32;22.80;66.70
44863;DHT22;30597;49.628;10.850;2023-09-19T05:01:58;22.80;66.70
44863;DHT22;30597;49.628;10.850;2023-09-19T05:04:24;22.80;66.70
44863;DHT22;30597;49.628;10.850;2023-09-19T05:06:49;22.80;66.70
44863;DHT22;30597;49.628;10.850;2023-09-19T05:09:16;22.80;66.60
44863;DHT22;30597;49.628;10.850;2023-09-19T05:11:45;22.80;66.70
44863;DHT22;30597;49.628;10.850;2023-09-19T05:14:11;22.80;66.70
44863;DHT22;30597;49.628;10.850;2023-09-19T05:16:37;22.80;66.70
44863;DHT22;30597;49.628;10.850;2023-09-19T05:19:02;22.80;66.70
44863;DHT22;30597;49.628;10.850;2023-09-19T05:21:29;22.80;66.60
44863;DHT22;30597;49.628;10.850;2023-09-19T05:23:56;22.80;66.80
44863;DHT22;30597;49.628;10.850;2023-09-19T05:26:21;22.80;66.60
44863;DHT22;30597;49.628;10.850;2023-09-19T05:28:47;22.80;66.60
44863;DHT22;30597;49.628;10.850;2023-09-19T05:31:15;22.80;66.70
44863;DHT22;30597;49.628;10.850;2023-09-19T05:33:42;22.80;66.60
44863;DHT22;30597;49.628;10.850;2023-09-19T05:36:07;22.80;66.50
44863;DHT22;30597;49.628;10.850;2023-09-19T05:38:36;22.80;67.40
44863;DHT22;30597;49.628;10.850;2023-09-19T05:41:02;22.80;66.60
44863;DHT22;30597;49.628;10.850;2023-09-19T05:43:27;22.90;66.60
44863;DHT22;30597;49.628;10.850;2023-09-19T05:45:53;22.80;66.60
44863;DHT22;30597;49.628;10.850;2023-09-19T05:48:22;22.80;66.50
44863;DHT22;30597;49.628;10.850;2023-09-19T05:50:47;22.80;66.40
44863;DHT22;30597;49.628;10.850;2023-09-19T05:53:14;22.80;66.50
44863;DHT22;30597;49.628;10.850;2023-09-19T05:55:40;22.80;66.20
44863;DHT22;30597;49.628;10.850;2023-09-19T05:58:05;22.80;66.30
44863;DHT22;30597;49.628;10.850;2023-09-19T06:00:31;22.80;66.50
44863;DHT22;30597;49.628;10.850;2023-09-19T06:02:58;22.70;66.40
44863;DHT22;30597;49.628;10.850;2023-09-19T06:05:25;22.80;66.70
44863;DHT22;30597;49.628;10.850;2023-09-19T06:07:52;22.80;66.70
44863;DHT22;30597;49.628;10.850;2023-09-19T06:10:18;22.80;66.50
44863;DHT22;30597;49.628;10.850;2023-09-19T06:12:46;22.80;66.60
44863;DHT22;30597;49.628;10.850;2023-09-19T06:15:12;22.80;66.70
44863;DHT22;30597;49.628;10.850;2023-09-19T06:17:47;22.70;66.50
44863;DHT22;30597;49.628;10.850;2023-09-19T06:20:14;22.80;66.70
44863;DHT22;30597;49.628;10.850;2023-09-19T06:22:41;22.80;66.60
44863;DHT22;30597;49.628;10.850;2023-09-19T06:25:08;22.80;66.60
44863;DHT22;30597;49.628;10.850;2023-09-19T06:27:37;22.70;66.50
44863;DHT22;30597;49.628;10.850;2023-09-19T06:30:02;22.70;66.60
44863;DHT22;30597;49.628;10.850;2023-09-19T06:32:28;22.70;66.40
44863;DHT22;30597;49.628;10.850;2023-09-19T06:34:54;22.70;66.40
44863;DHT22;30597;49.628;10.850;2023-09-19T06:37:20;22.70;66.40
44863;DHT22;30597;49.628;10.850;2023-09-19T06:39:47;22.80;66.40
44863;DHT22;30597;49.628;10.850;2023-09-19T06:42:15;22.70;66.40
44863;DHT22;30597;49.628;10.850;2023-09-19T06:44:43;22.70;66.60
44863;DHT22;30597;49.628;10.850;2023-09-19T06:47:08;22.70;66.50
44863;DHT22;30597;49.628;10.850;2023-09-19T06:49:35;22.80;66.40
44863;DHT22;30597;49.628;10.850;2023-09-19T06:52:00;22.70;66.40
44863;DHT22;30597;49.628;10.850;2023-09-19T06:54:26;22.80;66.30
44863;DHT22;30597;49.628;10.850;2023-09-19T06:56:56;22.80;66.40
44863;DHT22;30597;49.628;10.850;2023-09-19T06:59:24;22.80;66.50
44863;DHT22;30597;49.628;10.850;2023-09-19T07:01:49;22.80;66.30
44863;DHT22;30597;49.628;10.850;2023-09-19T07:04:16;22.80;66.40
44863;DHT22;30597;49.628;10.850;2023-09-19T07:06:42;22.80;66.20
44863;DHT22;30597;49.628;10.850;2023-09-19T07:09:08;22.80;66.10
44863;DHT22;30597;49.628;10.850;2023-09-19T07:11:34;22.90;66.20
44863;DHT22;30597;49.628;10.850;2023-09-19T07:14:00;22.80;66.20
44863;DHT22;30597;49.628;10.850;2023-09-19T07:16:28;22.80;66.10
44863;DHT22;30597;49.628;10.850;2023-09-19T07:18:56;22.80;66.00
44863;DHT22;30597;49.628;10.850;2023-09-19T07:21:22;22.80;66.10
44863;DHT22;30597;49.628;10.850;2023-09-19T07:23:48;22.80;66.20
44863;DHT22;30597;49.628;10.850;2023-09-19T07:26:13;22.80;66.00
44863;DHT22;30597;49.628;10.850;2023-09-19T07:28:39;22.80;66.00
44863;DHT22;30597;49.628;10.850;2023-09-19T07:31:04;22.80;66.10
44863;DHT22;30597;49.628;10.850;2023-09-19T07:33:32;22.80;66.10
44863;DHT22;30597;49.628;10.850;2023-09-19T07:35:57;22.80;66.00
44863;DHT22;30597;49.628;10.850;2023-09-19T07:38:24;22.80;66.10
44863;DHT22;30597;49.628;10.850;2023-09-19T07:40:50;22.80;65.90
44863;DHT22;30597;49.628;10.850;2023-09-19T07:43:15;22.80;65.80
44863;DHT22;30597;49.628;10.850;2023-09-19T07:45:41;22.80;65.70
44863;DHT22;30597;49.628;10.850;2023-09-19T07:48:07;22.90;65.90
44863;DHT22;30597;49.628;10.850;2023-09-19T07:50:40;22.80;65.80
44863;DHT22;30597;49.628;10.850;2023-09-19T07:53:05;22.80;65.70
44863;DHT22;30597;49.628;10.850;2023-09-19T07:55:31;22.80;65.60
44863;DHT22;30597;49.628;10.850;2023-09-19T07:57:59;22.80;65.70
44863;DHT22;30597;49.628;10.850;2023-09-19T08:00:25;22.80;65.60
44863;DHT22;30597;49.628;10.850;2023-09-19T08:02:50;22.90;65.50
44863;DHT22;30597;49.628;10.850;2023-09-19T08:05:17;22.80;65.60
44863;DHT22;30597;49.628;10.850;2023-09-19T08:07:46;22.80;65.30
44863;DHT22;30597;49.628;10.850;2023-09-19T08:10:15;22.90;65.70
44863;DHT22;30597;49.628;10.850;2023-09-19T08:12:45;22.80;65.50
44863;DHT22;30597;49.628;10.850;2023-09-19T08:15:18;22.80;65.40
44863;DHT22;30597;49.628;10.850;2023-09-19T08:17:46;22.80;65.20
44863;DHT22;30597;49.628;10.850;2023-09-19T08:20:12;22.80;65.30
44863;DHT22;30597;49.628;10.850;2023-09-19T08:22:53;22.80;65.30
44863;DHT22;30597;49.628;10.850;2023-09-19T08:25:20;22.90;65.30
44863;DHT22;30597;49.628;10.850;2023-09-19T08:27:47;22.80;65.40
44863;DHT22;30597;49.628;10.850;2023-09-19T08:30:19;22.80;65.10
44863;DHT22;30597;49.628;10.850;2023-09-19T08:32:49;22.80;64.90
44863;DHT22;30597;49.628;10.850;2023-09-19T08:35:15;22.80;65.30
44863;DHT22;30597;49.628;10.850;2023-09-19T08:37:41;22.80;64.70
44863;DHT22;30597;49.628;10.850;2023-09-19T08:40:08;22.80;65.00
44863;DHT22;30597;49.628;10.850;2023-09-19T08:42:55;22.80;65.20
44863;DHT22;30597;49.628;10.850;2023-09-19T08:45:21;22.80;64.90
44863;DHT22;30597;49.628;10.850;2023-09-19T08:48:05;22.80;65.10
44863;DHT22;30597;49.628;10.850;2023-09-19T08:50:39;22.80;65.20
44863;DHT22;30597;49.628;10.850;2023-09-19T08:53:11;22.80;65.00
44863;DHT22;30597;49.628;10.850;2023-09-19T08:55:40;22.90;64.80
44863;DHT22;30597;49.628;10.850;2023-09-19T08:58:10;22.80;65.00
44863;DHT22;30597;49.628;10.850;2023-09-19T09:00:36;22.80;65.10
44863;DHT22;30597;49.628;10.850;2023-09-19T09:03:03;22.80;64.90
44863;DHT22;30597;49.628;10.850;2023-09-19T09:05:32;22.80;64.90
44863;DHT22;30597;49.628;10.850;2023-09-19T09:07:58;22.80;65.00
44863;DHT22;30597;49.628;10.850;2023-09-19T09:10:25;22.80;64.90
44863;DHT22;30597;49.628;10.850;2023-09-19T09:12:52;22.80;64.60
44863;DHT22;30597;49.628;10.850;2023-09-19T09:15:19;22.80;64.80
44863;DHT22;30597;49.628;10.850;2023-09-19T09:17:50;22.80;64.70
44863;DHT22;30597;49.628;10.850;2023-09-19T09:20:18;22.80;64.50
44863;DHT22;30597;49.628;10.850;2023-09-19T09:22:51;22.80;64.40
44863;DHT22;30597;49.628;10.850;2023-09-19T09:25:17;22.80;64.60
44863;DHT22;30597;49.628;10.850;2023-09-19T09:27:44;22.80;64.60
44863;DHT22;30597;49.628;10.850;2023-09-19T09:30:36;22.80;64.70
44863;DHT22;30597;49.628;10.850;2023-09-19T09:33:08;22.80;64.60
44863;DHT22;30597;49.628;10.850;2023-09-19T09:35:36;22.80;64.80
44863;DHT22;30597;49.628;10.850;2023-09-19T09:38:04;22.80;64.80
44863;DHT22;30597;49.628;10.850;2023-09-19T09:41:00;22.80;64.60
44863;DHT22;30597;49.628;10.850;2023-09-19T09:43:36;22.80;64.40
44863;DHT22;30597;49.628;10.850;2023-09-19T09:46:21;22.90;64.40
44863;DHT22;30597;49.628;10.850;2023-09-19T09:48:48;22.80;64.30
44863;DHT22;30597;49.628;10.850;2023-09-19T09:52:02;22.80;64.50
44863;DHT22;30597;49.628;10.850;2023-09-19T09:54:33;22.80;64.50
44863;DHT22;30597;49.628;10.850;2023-09-19T09:57:01;22.80;64.60
44863;DHT22;30597;49.628;10.850;2023-09-19T09:59:51;22.80;64.60
44863;DHT22;30597;49.628;10.850;2023-09-19T10:02:30;22.80;64.60
44863;DHT22;30597;49.628;10.850;2023-09-19T10:05:16;22.80;64.60
44863;DHT22;30597;49.628;10.850;2023-09-19T10:07:49;22.80;64.70
44863;DHT22;30597;49.628;10.850;2023-09-19T10:10:34;22.80;64.70
44863;DHT22;30597;49.628;10.850;2023-09-19T10:13:10;22.80;64.00
44863;DHT22;30597;49.628;10.850;2023-09-19T10:15:51;22.80;64.70
44863;DHT22;30597;49.628;10.850;2023-09-19T10:18:27;22.80;64.50
44863;DHT22;30597;49.628;10.850;2023-09-19T10:20:56;22.80;64.50
44863;DHT22;30597;49.628;10.850;2023-09-19T10:23:22;22.80;64.40
44863;DHT22;30597;49.628;10.850;2023-09-19T10:25:49;22.80;64.40
44863;DHT22;30597;49.628;10.850;2023-09-19T10:28:16;22.80;64.40
44863;DHT22;30597;49.628;10.850;2023-09-19T10:30:49;22.80;64.60
44863;DHT22;30597;49.628;10.850;2023-09-19T10:33:20;22.80;64.60
44863;DHT22;30597;49.628;10.850;2023-09-19T10:35:48;22.80;64.50
44863;DHT22;30597;49.628;10.850;2023-09-19T10:38:17;22.80;64.50
44863;DHT22;30597;49.628;10.850;2023-09-19T10:40:44;22.80;64.30
44863;DHT22;30597;49.628;10.850;2023-09-19T10:43:16;22.80;64.40
44863;DHT22;30597;49.628;10.850;2023-09-19T10:45:45;22.80;64.40
44863;DHT22;30597;49.628;10.850;2023-09-19T10:48:20;22.80;64.40
44863;DHT22;30597;49.628;10.850;2023-09-19T10:50:58;22.80;64.30
44863;DHT22;30597;49.628;10.850;2023-09-19T10:53:54;22.90;63.90
44863;DHT22;30597;49.628;10.850;2023-09-19T10:56:30;22.90;63.80
44863;DHT22;30597;49.628;10.850;2023-09-19T10:59:09;22.90;63.70
44863;DHT22;30597;49.628;10.850;2023-09-19T11:04:30;22.90;64.10
44863;DHT22;30597;49.628;10.850;2023-09-19T11:07:11;22.90;64.30
44863;DHT22;30597;49.628;10.850;2023-09-19T11:09:56;22.80;64.10
44863;DHT22;30597;49.628;10.850;2023-09-19T11:15:03;22.80;64.10
44863;DHT22;30597;49.628;10.850;2023-09-19T11:17:41;22.90;64.20
44863;DHT22;30597;49.628;10.850;2023-09-19T11:30:45;22.90;64.10
44863;DHT22;30597;49.628;10.850;2023-09-19T11:36:10;23.00;64.00
44863;DHT22;30597;49.628;10.850;2023-09-19T11:43:51;23.00;63.60
44863;DHT22;30597;49.628;10.850;2023-09-19T11:46:18;22.90;63.80
44863;DHT22;30597;49.628;10.850;2023-09-19T11:48:50;23.00;63.80
44863;DHT22;30597;49.628;10.850;2023-09-19T11:51:26;23.00;63.70
44863;DHT22;30597;49.628;10.850;2023-09-19T11:53:58;23.00;63.60
44863;DHT22;30597;49.628;10.850;2023-09-19T11:56:26;23.10;63.50
44863;DHT22;30597;49.628;10.850;2023-09-19T11:58:54;23.10;63.50
44863;DHT22;30597;49.628;10.850;2023-09-19T12:01:31;23.10;63.30
44863;DHT22;30597;49.628;10.850;2023-09-19T12:04:01;23.10;63.40
44863;DHT22;30597;49.628;10.850;2023-09-19T12:06:29;23.10;62.90
44863;DHT22;30597;49.628;10.850;2023-09-19T12:08:55;23.10;62.50
44863;DHT22;30597;49.628;10.850;2023-09-19T12:11:29;23.10;63.10
44863;DHT22;30597;49.628;10.850;2023-09-19T12:13:58;23.10;63.10
44863;DHT22;30597;49.628;10.850;2023-09-19T12:16:26;23.10;62.90
44863;DHT22;30597;49.628;10.850;2023-09-19T12:18:55;23.20;62.90
44863;DHT22;30597;49.628;10.850;2023-09-19T12:21:32;23.10;62.90
44863;DHT22;30597;49.628;10.850;2023-09-19T12:24:14;23.20;62.80
44863;DHT22;30597;49.628;10.850;2023-09-19T12:26:45;23.20;62.30
44863;DHT22;30597;49.628;10.850;2023-09-19T12:29:17;23.20;62.20
44863;DHT22;30597;49.628;10.850;2023-09-19T12:31:52;23.20;62.70
44863;DHT22;30597;49.628;10.850;2023-09-19T12:34:30;23.30;62.80
44863;DHT22;30597;49.628;10.850;2023-09-19T12:37:14;23.30;62.60
44863;DHT22;30597;49.628;10.850;2023-09-19T12:39:51;23.20;62.60
44863;DHT22;30597;49.628;10.850;2023-09-19T12:42:26;23.30;62.40
44863;DHT22;30597;49.628;10.850;2023-09-19T12:44:58;23.30;62.80
44863;DHT22;30597;49.628;10.850;2023-09-19T12:47:27;23.20;62.40
44863;DHT22;30597;49.628;10.850;2023-09-19T12:50:13;23.20;62.40
44863;DHT22;30597;49.628;10.850;2023-09-19T12:52:52;23.30;62.20
44863;DHT22;30597;49.628;10.850;2023-09-19T12:55:23;23.30;62.60
44863;DHT22;30597;49.628;10.850;2023-09-19T12:58:12;23.30;62.60
44863;DHT22;30597;49.628;10.850;2023-09-19T13:00:40;23.20;62.40
44863;DHT22;30597;49.628;10.850;2023-09-19T13:13:27;23.10;62.20
44863;DHT22;30597;49.628;10.850;2023-09-19T13:15:53;23.20;62.30
44863;DHT22;30597;49.628;10.850;2023-09-19T13:18:19;23.20;62.60
44863;DHT22;30597;49.628;10.850;2023-09-19T13:21:08;23.10;62.30
44863;DHT22;30597;49.628;10.850;2023-09-19T13:23:54;23.20;62.60
44863;DHT22;30597;49.628;10.850;2023-09-19T13:26:21;23.20;62.30
44863;DHT22;30597;49.628;10.850;2023-09-19T13:28:49;23.20;62.10
44863;DHT22;30597;49.628;10.850;2023-09-19T13:31:15;23.20;62.10
44863;DHT22;30597;49.628;10.850;2023-09-19T13:33:44;23.30;61.90
44863;DHT22;30597;49.628;10.850;2023-09-19T13:36:11;23.30;62.20
44863;DHT22;30597;49.628;10.850;2023-09-19T13:38:37;23.30;62.20
44863;DHT22;30597;49.628;10.850;2023-09-19T13:41:02;23.30;61.80
44863;DHT22;30597;49.628;10.850;2023-09-19T13:43:28;23.40;62.10
44863;DHT22;30597;49.628;10.850;2023-09-19T13:45:54;23.40;62.00
44863;DHT22;30597;49.628;10.850;2023-09-19T13:48:20;23.40;61.80
44863;DHT22;30597;49.628;10.850;2023-09-19T13:50:48;23.40;61.90
44863;DHT22;30597;49.628;10.850;2023-09-19T13:53:13;23.40;62.10
44863;DHT22;30597;49.628;10.850;2023-09-19T13:55:39;23.40;62.00
44863;DHT22;30597;49.628;10.850;2023-09-19T13:58:05;23.40;61.50
44863;DHT22;30597;49.628;10.850;2023-09-19T14:00:32;23.40;61.80
44863;DHT22;30597;49.628;10.850;2023-09-19T14:03:00;23.50;61.30
44863;DHT22;30597;49.628;10.850;2023-09-19T14:05:26;23.40;61.70
44863;DHT22;30597;49.628;10.850;2023-09-19T14:07:53;23.40;61.60
44863;DHT22;30597;49.628;10.850;2023-09-19T14:10:21;23.40;61.40
44863;DHT22;30597;49.628;10.850;2023-09-19T14:12:47;23.40;61.80
44863;DHT22;30597;49.628;10.850;2023-09-19T14:15:13;23.50;61.80
44863;DHT22;30597;49.628;10.850;2023-09-19T14:17:40;23.40;61.60
44863;DHT22;30597;49.628;10.850;2023-09-19T14:20:10;23.40;61.50
44863;DHT22;30597;49.628;10.850;2023-09-19T14:22:36;23.40;61.40
44863;DHT22;30597;49.628;10.850;2023-09-19T14:25:02;23.40;62.20
44863;DHT22;30597;49.628;10.850;2023-09-19T14:27:29;23.50;61.70
44863;DHT22;30597;49.628;10.850;2023-09-19T14:29:55;23.50;61.30
44863;DHT22;30597;49.628;10.850;2023-09-19T14:32:22;23.40;61.50
44863;DHT22;30597;49.628;10.850;2023-09-19T14:34:47;23.50;61.50
44863;DHT22;30597;49.628;10.850;2023-09-19T14:37:13;23.40;61.30
44863;DHT22;30597;49.628;10.850;2023-09-19T14:39:40;23.40;61.50
44863;DHT22;30597;49.628;10.850;2023-09-19T14:42:06;23.40;61.40
44863;DHT22;30597;49.628;10.850;2023-09-19T14:44:31;23.40;61.30
44863;DHT22;30597;49.628;10.850;2023-09-19T14:46:57;23.40;61.30
44863;DHT22;30597;49.628;10.850;2023-09-19T14:49:24;23.40;62.10
44863;DHT22;30597;49.628;10.850;2023-09-19T14:51:50;23.40;61.30
44863;DHT22;30597;49.628;10.850;2023-09-19T14:54:17;23.40;61.20
44863;DHT22;30597;49.628;10.850;2023-09-19T14:56:44;23.40;61.10
44863;DHT22;30597;49.628;10.850;2023-09-19T14:59:10;23.40;61.20
44863;DHT22;30597;49.628;10.850;2023-09-19T15:01:41;23.40;61.30
44863;DHT22;30597;49.628;10.850;2023-09-19T15:04:07;23.40;61.20
44863;DHT22;30597;49.628;10.850;2023-09-19T15:06:34;23.40;61.30
44863;DHT22;30597;49.628;10.850;2023-09-19T15:08:59;23.40;61.10
44863;DHT22;30597;49.628;10.850;2023-09-19T15:11:25;23.40;61.20
44863;DHT22;30597;49.628;10.850;2023-09-19T15:13:51;23.40;61.30
44863;DHT22;30597;49.628;10.850;2023-09-19T15:16:17;23.40;61.30
44863;DHT22;30597;49.628;10.850;2023-09-19T15:18:45;23.40;61.10
44863;DHT22;30597;49.628;10.850;2023-09-19T15:21:14;23.50;61.40
44863;DHT22;30597;49.628;10.850;2023-09-19T15:23:42;23.40;61.30
44863;DHT22;30597;49.628;10.850;2023-09-19T15:26:10;23.40;61.30
44863;DHT22;30597;49.628;10.850;2023-09-19T15:28:36;23.40;61.20
44863;DHT22;30597;49.628;10.850;2023-09-19T15:33:31;23.40;61.40
44863;DHT22;30597;49.628;10.850;2023-09-19T15:36:15;23.40;61.40
44863;DHT22;30597;49.628;10.850;2023-09-19T15:39:00;23.50;61.10
44863;DHT22;30597;49.628;10.850;2023-09-19T15:41:27;23.40;61.10
44863;DHT22;30597;49.628;10.850;2023-09-19T15:43:54;23.40;61.30
44863;DHT22;30597;49.628;10.850;2023-09-19T15:46:20;23.40;61.30
44863;DHT22;30597;49.628;10.850;2023-09-19T15:48:46;23.40;61.20
44863;DHT22;30597;49.628;10.850;2023-09-19T15:51:13;23.50;61.30
44863;DHT22;30597;49.628;10.850;2023-09-19T15:53:47;23.40;61.10
44863;DHT22;30597;49.628;10.850;2023-09-19T15:56:14;23.40;61.10
44863;DHT22;30597;49.628;10.850;2023-09-19T15:58:44;23.40;61.40
44863;DHT22;30597;49.628;10.850;2023-09-19T16:01:09;23.40;61.20
44863;DHT22;30597;49.628;10.850;2023-09-19T16:03:43;23.40;61.00
44863;DHT22;30597;49.628;10.850;2023-09-19T16:06:13;23.40;61.00
44863;DHT22;30597;49.628;10.850;2023-09-19T16:08:46;23.40;61.20
44863;DHT22;30597;49.628;10.850;2023-09-19T16:11:12;23.40;61.10
44863;DHT22;30597;49.628;10.850;2023-09-19T16:13:40;23.40;61.10
44863;DHT22;30597;49.628;10.850;2023-09-19T16:16:09;23.40;61.10